createdAt,value
2022-11-05T00:00:21.237Z,57.20
2022-11-05T00:03:06.631Z,57.20
2022-11-05T00:05:51.977Z,57.10
2022-11-05T00:08:37.114Z,57.20
2022-11-05T00:11:03.932Z,57.30
2022-11-05T00:13:49.029Z,57.30
2022-11-05T00:16:48.024Z,57.30
2022-11-05T00:19:14.901Z,57.40
2022-11-05T00:22:00.316Z,57.40
2022-11-05T00:24:45.656Z,57.50
2022-11-05T00:27:12.604Z,57.50
2022-11-05T00:29:39.231Z,57.50
2022-11-05T00:32:06.151Z,57.50
2022-11-05T00:34:32.913Z,57.50
2022-11-05T00:36:59.555Z,57.50
2022-11-05T00:39:26.148Z,57.50
2022-11-05T00:42:11.417Z,57.50
2022-11-05T00:44:56.744Z,57.50
2022-11-05T00:47:42.139Z,57.50
2022-11-05T00:50:10.761Z,57.50
2022-11-05T00:52:56.295Z,57.50
2022-11-05T00:55:24.471Z,57.60
2022-11-05T00:57:51.391Z,57.60
2022-11-05T01:00:18.421Z,57.60
2022-11-05T01:02:45.447Z,57.60
2022-11-05T01:05:12.973Z,57.60
2022-11-05T01:07:39.930Z,57.60
2022-11-05T01:10:07.028Z,57.60
2022-11-05T01:12:34.133Z,57.40
2022-11-05T01:15:01.805Z,57.30
2022-11-05T01:17:28.519Z,57.20
2022-11-05T01:19:55.671Z,57.20
2022-11-05T01:22:22.363Z,57.10
2022-11-05T01:24:49.110Z,57.10
2022-11-05T01:27:16.008Z,57.10
2022-11-05T01:29:42.791Z,57.10
2022-11-05T01:32:09.772Z,57.20
2022-11-05T01:34:36.496Z,57.20
2022-11-05T01:37:03.135Z,57.20
2022-11-05T01:39:29.904Z,57.20
2022-11-05T01:41:58.712Z,57.20
2022-11-05T01:45:01.359Z,57.10
2022-11-05T01:47:48.911Z,57.40
2022-11-05T01:50:25.196Z,57.50
2022-11-05T01:52:57.416Z,57.30
2022-11-05T01:55:28.377Z,57.20
2022-11-05T01:57:57.473Z,57.00
2022-11-05T02:00:24.287Z,57.00
2022-11-05T02:02:51.289Z,57.10
2022-11-05T02:05:18.060Z,57.10
2022-11-05T02:07:46.388Z,57.00
2022-11-05T02:10:15.724Z,57.10
2022-11-05T02:12:45.260Z,57.10
2022-11-05T02:15:14.343Z,57.00
2022-11-05T02:17:56.838Z,57.10
2022-11-05T02:20:34.722Z,57.20
2022-11-05T02:23:29.048Z,57.20
2022-11-05T02:26:32.627Z,57.20
2022-11-05T02:29:08.572Z,57.30
2022-11-05T02:31:45.207Z,57.10
2022-11-05T02:34:33.092Z,57.00
2022-11-05T02:37:28.502Z,57.00
2022-11-05T02:40:20.632Z,57.20
2022-11-05T02:43:17.514Z,57.30
2022-11-05T02:46:14.159Z,57.40
2022-11-05T02:48:59.530Z,57.40
2022-11-05T02:51:35.667Z,57.40
2022-11-05T02:54:12.466Z,57.30
2022-11-05T02:56:47.070Z,57.50
2022-11-05T02:59:14.222Z,57.50
2022-11-05T03:01:43.204Z,57.30
2022-11-05T03:04:13.429Z,57.80
2022-11-05T03:07:19.898Z,57.40
2022-11-05T03:10:07.075Z,57.70
2022-11-05T03:12:42.938Z,57.60
2022-11-05T03:15:30.003Z,57.50
2022-11-05T03:18:11.521Z,57.60
2022-11-05T03:21:00.753Z,57.60
2022-11-05T03:23:40.196Z,57.70
2022-11-05T03:26:19.459Z,57.70
2022-11-05T03:28:56.255Z,57.80
2022-11-05T03:31:25.139Z,57.80
2022-11-05T03:33:53.819Z,57.80
2022-11-05T03:36:27.040Z,57.80
2022-11-05T03:38:56.079Z,58.00
2022-11-05T03:41:25.157Z,57.90
2022-11-05T03:43:57.235Z,58.10
2022-11-05T03:46:29.981Z,58.10
2022-11-05T03:49:01.371Z,58.10
2022-11-05T03:51:46.593Z,58.10
2022-11-05T03:54:14.230Z,58.20
2022-11-05T03:56:54.893Z,58.00
2022-11-05T03:59:22.457Z,58.10
2022-11-05T04:01:50.067Z,58.00
2022-11-05T04:04:16.884Z,58.00
2022-11-05T04:07:02.401Z,58.00
2022-11-05T04:09:48.510Z,57.90
2022-11-05T04:12:34.602Z,57.90
2022-11-05T04:15:01.295Z,57.90
2022-11-05T04:17:28.117Z,57.90
2022-11-05T04:20:13.256Z,58.00
2022-11-05T04:22:58.923Z,57.90
2022-11-05T04:25:25.541Z,58.30
2022-11-05T04:27:52.652Z,57.80
2022-11-05T04:30:20.244Z,57.80
2022-11-05T04:33:07.347Z,57.80
2022-11-05T04:35:45.671Z,58.10
2022-11-05T04:38:18.706Z,58.00
2022-11-05T04:40:46.690Z,57.90
2022-11-05T04:43:18.809Z,58.00
2022-11-05T04:45:46.073Z,58.00
2022-11-05T04:48:12.763Z,57.90
2022-11-05T04:50:39.651Z,57.80
2022-11-05T04:53:06.324Z,57.80
2022-11-05T04:55:33.028Z,57.70
2022-11-05T04:57:59.636Z,57.80
2022-11-05T05:00:26.442Z,57.70
2022-11-05T05:02:53.104Z,57.70
2022-11-05T05:05:21.278Z,57.70
2022-11-05T05:07:47.871Z,57.70
2022-11-05T05:10:15.184Z,57.70
2022-11-05T05:12:41.940Z,57.60
2022-11-05T05:15:08.985Z,57.70
2022-11-05T05:17:35.604Z,57.70
2022-11-05T05:20:21.632Z,57.80
2022-11-05T05:22:53.215Z,57.70
2022-11-05T05:25:19.951Z,57.80
2022-11-05T05:27:46.773Z,57.80
2022-11-05T05:30:13.468Z,57.70
2022-11-05T05:32:40.288Z,57.70
2022-11-05T05:35:07.191Z,57.70
2022-11-05T05:37:34.033Z,57.70
2022-11-05T05:40:00.647Z,57.70
2022-11-05T05:42:27.463Z,57.70
2022-11-05T05:44:54.090Z,57.80
2022-11-05T05:47:20.857Z,57.80
2022-11-05T05:49:47.713Z,57.80
2022-11-05T05:52:14.314Z,57.80
2022-11-05T05:54:43.030Z,57.80
2022-11-05T05:57:10.076Z,57.90
2022-11-05T05:59:36.927Z,57.90
2022-11-05T06:02:03.693Z,57.80
2022-11-05T06:04:30.639Z,57.90
2022-11-05T06:06:57.207Z,58.00
2022-11-05T06:09:23.958Z,58.00
2022-11-05T06:11:50.830Z,57.90
2022-11-05T06:14:17.519Z,58.00
2022-11-05T06:16:44.316Z,58.00
2022-11-05T06:19:10.913Z,57.90
2022-11-05T06:21:38.046Z,57.90
2022-11-05T06:24:04.840Z,57.90
2022-11-05T06:26:31.857Z,57.80
2022-11-05T06:28:58.440Z,57.80
2022-11-05T06:31:25.400Z,57.90
2022-11-05T06:33:52.404Z,57.90
2022-11-05T06:36:20.087Z,58.00
2022-11-05T06:38:47.243Z,58.00
2022-11-05T06:41:14.031Z,57.90
2022-11-05T06:43:40.779Z,58.00
2022-11-05T06:46:08.037Z,58.00
2022-11-05T06:48:34.867Z,58.00
2022-11-05T06:51:01.949Z,58.10
2022-11-05T06:53:29.818Z,58.10
2022-11-05T06:55:56.564Z,58.10
2022-11-05T06:58:23.291Z,58.10
2022-11-05T07:00:50.346Z,58.20
2022-11-05T07:03:17.852Z,58.20
2022-11-05T07:05:48.009Z,58.30
2022-11-05T07:08:15.609Z,58.30
2022-11-05T07:10:42.230Z,58.30
2022-11-05T07:13:09.364Z,58.20
2022-11-05T07:15:36.912Z,58.20
2022-11-05T07:18:04.496Z,58.10
2022-11-05T07:20:34.154Z,58.10
2022-11-05T07:23:10.658Z,58.00
2022-11-05T07:25:37.692Z,58.10
2022-11-05T07:28:04.984Z,58.00
2022-11-05T07:30:33.222Z,58.00
2022-11-05T07:33:00.032Z,58.00
2022-11-05T07:35:30.043Z,57.90
2022-11-05T07:37:57.035Z,57.90
2022-11-05T07:40:25.710Z,57.90
2022-11-05T07:42:54.592Z,57.80
2022-11-05T07:45:21.645Z,57.90
2022-11-05T07:48:14.477Z,57.80
2022-11-05T07:50:41.239Z,57.80
2022-11-05T07:53:11.798Z,57.70
2022-11-05T07:55:40.972Z,57.70
2022-11-05T07:58:07.823Z,57.60
2022-11-05T08:00:34.654Z,57.60
2022-11-05T08:03:08.206Z,57.70
2022-11-05T08:05:39.045Z,57.80
2022-11-05T08:08:08.044Z,57.80
2022-11-05T08:10:35.551Z,57.80
2022-11-05T08:13:02.798Z,57.80
2022-11-05T08:15:29.616Z,57.80
2022-11-05T08:18:04.808Z,57.90
2022-11-05T08:20:32.210Z,58.00
2022-11-05T08:22:59.322Z,57.90
2022-11-05T08:25:26.417Z,57.90
2022-11-05T08:27:58.379Z,57.70
2022-11-05T08:30:25.499Z,57.70
2022-11-05T08:32:57.784Z,57.80
2022-11-05T08:35:25.308Z,57.80
2022-11-05T08:38:02.556Z,58.00
2022-11-05T08:40:31.534Z,58.60
2022-11-05T08:42:59.195Z,58.60
2022-11-05T08:45:27.283Z,58.30
2022-11-05T08:48:08.447Z,58.00
2022-11-05T08:50:37.131Z,57.80
2022-11-05T08:53:05.178Z,57.90
2022-11-05T08:55:32.199Z,57.80
2022-11-05T08:58:00.991Z,57.70
2022-11-05T09:00:30.805Z,57.80
2022-11-05T09:03:01.892Z,57.80
2022-11-05T09:05:29.860Z,57.60
2022-11-05T09:08:00.771Z,57.30
2022-11-05T09:10:28.627Z,56.90
2022-11-05T09:12:55.422Z,56.80
2022-11-05T09:15:23.289Z,56.60
2022-11-05T09:17:50.336Z,56.60
2022-11-05T09:20:17.091Z,56.60
2022-11-05T09:22:44.185Z,56.40
2022-11-05T09:25:11.289Z,56.40
2022-11-05T09:27:37.959Z,56.50
2022-11-05T09:30:05.433Z,56.50
2022-11-05T09:32:32.749Z,56.20
2022-11-05T09:35:02.568Z,56.70
2022-11-05T09:37:29.617Z,57.20
2022-11-05T09:39:56.233Z,57.50
2022-11-05T09:42:29.178Z,57.40
2022-11-05T09:45:03.364Z,57.00
2022-11-05T09:47:36.587Z,56.20
2022-11-05T09:50:08.754Z,55.80
2022-11-05T09:52:35.531Z,56.00
2022-11-05T09:55:18.851Z,56.40
2022-11-05T09:57:55.948Z,55.90
2022-11-05T10:00:23.092Z,56.00
2022-11-05T10:02:55.538Z,56.00
2022-11-05T10:05:24.931Z,55.60
2022-11-05T10:07:56.678Z,55.60
2022-11-05T10:10:29.530Z,55.20
2022-11-05T10:13:05.019Z,54.70
2022-11-05T10:15:37.267Z,54.60
2022-11-05T10:18:19.338Z,54.60
2022-11-05T10:20:46.604Z,54.30
2022-11-05T10:23:18.827Z,54.70
2022-11-05T10:25:50.474Z,54.80
2022-11-05T10:28:22.110Z,55.50
2022-11-05T10:30:52.769Z,56.80
2022-11-05T10:33:31.496Z,57.00
2022-11-05T10:36:06.109Z,56.50
2022-11-05T10:38:33.279Z,56.00
2022-11-05T10:41:28.836Z,56.10
2022-11-05T10:44:20.987Z,55.20
2022-11-05T10:47:06.886Z,54.40
2022-11-05T10:49:59.576Z,54.40
2022-11-05T10:52:33.415Z,54.00
2022-11-05T10:55:04.212Z,55.90
2022-11-05T10:57:39.908Z,57.60
2022-11-05T11:00:18.909Z,57.50
2022-11-05T11:03:01.576Z,57.20
2022-11-05T11:05:35.461Z,56.80
2022-11-05T11:08:02.339Z,54.30
2022-11-05T11:10:32.485Z,54.50
2022-11-05T11:12:59.630Z,50.40
2022-11-05T11:15:29.461Z,51.70
2022-11-05T11:17:56.663Z,51.40
2022-11-05T11:20:31.572Z,50.70
2022-11-05T11:23:15.118Z,47.90
2022-11-05T11:26:01.268Z,46.20
2022-11-05T11:28:32.801Z,45.70
2022-11-05T11:31:29.282Z,47.20
2022-11-05T11:34:24.519Z,45.20
2022-11-05T11:36:55.470Z,44.90
2022-11-05T11:39:30.345Z,46.50
2022-11-05T11:42:01.683Z,46.10
2022-11-05T11:44:30.998Z,45.00
2022-11-05T11:47:02.055Z,45.50
2022-11-05T11:49:42.033Z,45.50
2022-11-05T11:52:15.279Z,44.50
2022-11-05T11:54:42.368Z,44.20
2022-11-05T11:57:29.004Z,45.10
2022-11-05T12:00:14.394Z,44.10
2022-11-05T12:02:46.791Z,44.20
2022-11-05T12:05:37.697Z,44.30
2022-11-05T12:08:18.931Z,43.80
2022-11-05T12:10:57.844Z,44.30
2022-11-05T12:13:43.176Z,44.00
2022-11-05T12:16:20.573Z,43.90
2022-11-05T12:19:02.498Z,43.40
2022-11-05T12:21:58.966Z,44.10
2022-11-05T12:24:38.064Z,44.10
2022-11-05T12:27:38.293Z,44.80
2022-11-05T12:30:17.467Z,44.60
2022-11-05T12:33:18.945Z,43.80
2022-11-05T12:36:14.419Z,44.80
2022-11-05T12:39:19.870Z,45.00
2022-11-05T12:44:58.908Z,45.10
2022-11-05T12:47:45.321Z,44.70
2022-11-05T12:50:22.156Z,44.30
2022-11-05T12:53:15.812Z,44.20
2022-11-05T12:55:48.716Z,44.20
2022-11-05T12:58:36.772Z,45.10
2022-11-05T13:01:16.813Z,45.30
2022-11-05T13:03:59.560Z,45.40
2022-11-05T13:06:34.188Z,46.30
2022-11-05T13:09:07.685Z,46.40
2022-11-05T13:11:47.025Z,46.40
2022-11-05T13:14:22.271Z,46.20
2022-11-05T13:17:06.933Z,45.80
2022-11-05T13:19:59.503Z,46.00
2022-11-05T13:22:47.732Z,45.40
2022-11-05T13:25:29.243Z,45.90
2022-11-05T13:28:22.235Z,45.80
2022-11-05T13:30:52.631Z,45.40
2022-11-05T13:33:36.312Z,45.60
2022-11-05T13:36:49.170Z,45.00
2022-11-05T13:39:28.836Z,45.10
2022-11-05T13:42:30.820Z,45.50
2022-11-05T13:45:32.065Z,44.70
2022-11-05T13:48:16.848Z,45.00
2022-11-05T13:51:05.719Z,45.10
2022-11-05T13:53:42.536Z,45.40
2022-11-05T13:56:47.197Z,45.10
2022-11-05T13:59:35.034Z,45.30
2022-11-05T14:02:05.303Z,45.70
2022-11-05T14:04:36.061Z,45.90
2022-11-05T14:07:12.443Z,46.20
2022-11-05T14:09:41.466Z,46.10
2022-11-05T14:12:19.502Z,46.10
2022-11-05T14:14:58.450Z,46.10
2022-11-05T14:18:04.270Z,46.30
2022-11-05T14:20:31.118Z,46.10
2022-11-05T14:23:25.842Z,46.40
2022-11-05T14:26:11.574Z,46.40
2022-11-05T14:28:38.157Z,46.60
2022-11-05T14:31:20.644Z,46.60
2022-11-05T14:34:11.951Z,46.40
2022-11-05T14:36:40.755Z,46.30
2022-11-05T14:39:33.814Z,46.30
2022-11-05T14:42:06.536Z,46.50
2022-11-05T14:44:35.299Z,46.70
2022-11-05T14:47:05.716Z,46.90
2022-11-05T14:50:02.892Z,46.80
2022-11-05T14:52:29.955Z,46.80
2022-11-05T14:54:58.170Z,46.80
2022-11-05T14:57:43.281Z,46.90
2022-11-05T15:00:28.416Z,46.90
2022-11-05T15:03:01.367Z,47.00
2022-11-05T15:05:31.059Z,47.10
2022-11-05T15:07:58.580Z,47.20
2022-11-05T15:10:35.098Z,47.30
2022-11-05T15:13:06.200Z,47.30
2022-11-05T15:15:43.016Z,47.40
2022-11-05T15:18:26.914Z,47.50
2022-11-05T15:20:56.955Z,47.60
2022-11-05T15:23:29.440Z,47.40
2022-11-05T15:26:20.929Z,47.30
2022-11-05T15:28:53.524Z,47.40
2022-11-05T15:31:23.960Z,47.50
2022-11-05T15:33:50.947Z,47.50
2022-11-05T15:36:29.298Z,47.50
2022-11-05T15:39:27.562Z,47.70
2022-11-05T15:41:44.785Z,47.70
2022-11-05T15:44:31.559Z,47.70
2022-11-05T15:47:06.425Z,47.90
2022-11-05T15:49:33.664Z,47.90
2022-11-05T15:52:00.337Z,47.90
2022-11-05T15:54:31.138Z,48.00
2022-11-05T15:56:59.712Z,48.10
2022-11-05T15:59:29.149Z,48.10
2022-11-05T16:02:21.450Z,48.20
2022-11-05T16:04:49.076Z,48.30
2022-11-05T16:07:16.533Z,48.30
2022-11-05T16:09:52.567Z,48.20
2022-11-05T16:12:19.336Z,48.40
2022-11-05T16:15:17.975Z,48.40
2022-11-05T16:17:54.782Z,48.70
2022-11-05T16:20:26.139Z,48.70
2022-11-05T16:22:55.981Z,48.60
2022-11-05T16:25:28.759Z,48.70
2022-11-05T16:27:59.753Z,48.80
2022-11-05T16:30:26.820Z,48.90
2022-11-05T16:32:54.365Z,49.20
2022-11-05T16:35:24.053Z,49.10
2022-11-05T16:37:52.652Z,49.10
2022-11-05T16:40:22.287Z,49.10
2022-11-05T16:42:51.388Z,49.20
2022-11-05T16:45:21.014Z,49.30
2022-11-05T16:47:48.615Z,49.40
2022-11-05T16:50:29.842Z,49.60
2022-11-05T16:52:56.659Z,49.60
2022-11-05T16:55:23.411Z,49.50
2022-11-05T16:57:53.587Z,49.60
2022-11-05T17:00:21.686Z,49.80
2022-11-05T17:02:48.855Z,49.80
2022-11-05T17:05:25.324Z,49.90
2022-11-05T17:07:52.541Z,50.00
2022-11-05T17:10:20.571Z,49.90
2022-11-05T17:12:48.214Z,50.00
2022-11-05T17:15:15.991Z,50.00
2022-11-05T17:17:42.648Z,50.10
2022-11-05T17:20:40.378Z,50.00
2022-11-05T17:23:10.509Z,50.10
2022-11-05T17:25:38.315Z,50.10
2022-11-05T17:28:05.559Z,50.20
2022-11-05T17:30:33.035Z,50.20
2022-11-05T17:32:59.951Z,50.40
2022-11-05T17:35:27.050Z,50.40
2022-11-05T17:37:54.157Z,50.30
2022-11-05T17:40:22.604Z,50.40
2022-11-05T17:42:50.332Z,50.30
2022-11-05T17:45:17.843Z,50.30
2022-11-05T17:47:44.865Z,50.30
2022-11-05T17:50:13.621Z,50.20
2022-11-05T17:52:40.504Z,50.30
2022-11-05T17:55:16.569Z,50.30
2022-11-05T17:57:48.404Z,50.40
2022-11-05T18:00:22.052Z,50.50
2022-11-05T18:02:49.892Z,50.50
2022-11-05T18:05:20.677Z,50.40
2022-11-05T18:07:48.195Z,50.60
2022-11-05T18:10:15.776Z,50.70
2022-11-05T18:12:43.594Z,50.80
2022-11-05T18:15:11.010Z,51.00
2022-11-05T18:17:38.571Z,50.90
2022-11-05T18:20:15.770Z,51.00
2022-11-05T18:22:45.620Z,51.00
2022-11-05T18:25:13.411Z,51.00
2022-11-05T18:27:40.573Z,51.00
2022-11-05T18:30:08.079Z,51.00
2022-11-05T18:32:35.351Z,51.10
2022-11-05T18:35:01.977Z,51.20
2022-11-05T18:37:28.819Z,51.20
2022-11-05T18:39:55.581Z,51.30
2022-11-05T18:42:22.739Z,51.20
2022-11-05T18:44:49.796Z,51.30
2022-11-05T18:47:16.702Z,51.30
2022-11-05T18:49:43.475Z,51.30
2022-11-05T18:52:10.124Z,51.30
2022-11-05T18:54:36.938Z,51.30
2022-11-05T18:57:03.744Z,51.30
2022-11-05T18:59:37.790Z,51.40
2022-11-05T19:02:06.673Z,51.30
2022-11-05T19:04:35.683Z,51.40
2022-11-05T19:07:05.156Z,51.50
2022-11-05T19:09:37.988Z,51.50
2022-11-05T19:12:06.454Z,51.50
2022-11-05T19:14:33.584Z,51.60
2022-11-05T19:17:01.235Z,51.60
2022-11-05T19:19:28.194Z,51.60
2022-11-05T19:21:55.137Z,51.60
2022-11-05T19:24:21.897Z,51.60
2022-11-05T19:26:48.829Z,51.70
2022-11-05T19:29:15.640Z,51.70
2022-11-05T19:31:42.300Z,51.80
2022-11-05T19:34:09.189Z,51.80
2022-11-05T19:36:35.840Z,51.80
2022-11-05T19:39:06.505Z,51.80
2022-11-05T19:41:33.368Z,51.90
2022-11-05T19:44:01.672Z,52.10
2022-11-05T19:46:30.009Z,52.00
2022-11-05T19:48:57.434Z,52.00
2022-11-05T19:51:27.729Z,52.10
2022-11-05T19:53:55.140Z,52.20
2022-11-05T19:56:24.725Z,52.20
2022-11-05T19:58:53.074Z,52.20
2022-11-05T20:01:21.744Z,52.30
2022-11-05T20:03:48.783Z,52.30
2022-11-05T20:06:22.240Z,52.30
2022-11-05T20:11:37.798Z,52.40
2022-11-05T20:14:05.371Z,52.40
2022-11-05T20:16:37.939Z,52.50
2022-11-05T20:19:10.786Z,52.60
2022-11-05T20:21:38.431Z,52.70
2022-11-05T20:24:05.778Z,52.60
2022-11-05T20:26:32.980Z,52.70
2022-11-05T20:29:00.660Z,52.60
2022-11-05T20:31:27.364Z,52.80
2022-11-05T20:33:54.472Z,52.80
2022-11-05T20:36:22.872Z,52.90
2022-11-05T20:38:55.835Z,52.90
2022-11-05T20:41:23.005Z,53.00
2022-11-05T20:43:50.705Z,53.00
2022-11-05T20:46:19.283Z,53.00
2022-11-05T20:48:46.623Z,53.10
2022-11-05T20:51:16.510Z,53.10
2022-11-05T20:53:44.007Z,53.10
2022-11-05T20:56:19.043Z,53.00
2022-11-05T20:58:47.290Z,53.30
2022-11-05T21:01:16.164Z,53.10
2022-11-05T21:03:44.492Z,53.20
2022-11-05T21:06:11.675Z,53.30
2022-11-05T21:08:39.052Z,53.30
2022-11-05T21:11:07.120Z,53.40
2022-11-05T21:13:33.982Z,53.40
2022-11-05T21:16:01.851Z,53.50
2022-11-05T21:18:34.176Z,53.50
2022-11-05T21:21:05.818Z,53.50
2022-11-05T21:23:32.472Z,53.50
2022-11-05T21:26:03.088Z,53.50
2022-11-05T21:28:29.704Z,53.50
2022-11-05T21:31:03.927Z,53.50
2022-11-05T21:33:30.983Z,53.50
2022-11-05T21:35:58.082Z,53.50
2022-11-05T21:38:25.147Z,53.50
2022-11-05T21:40:51.898Z,53.50
2022-11-05T21:43:18.657Z,53.50
2022-11-05T21:45:45.383Z,53.60
2022-11-05T21:48:15.700Z,53.60
2022-11-05T21:51:01.549Z,53.60
2022-11-05T21:53:47.032Z,53.60
2022-11-05T21:56:38.626Z,53.60
2022-11-05T21:59:24.364Z,53.70
2022-11-05T22:01:51.421Z,53.50
2022-11-05T22:04:18.308Z,53.60
2022-11-05T22:06:44.951Z,53.70
2022-11-05T22:09:12.316Z,53.60
2022-11-05T22:11:39.034Z,53.70
2022-11-05T22:14:05.857Z,53.60
2022-11-05T22:16:32.499Z,53.50
2022-11-05T22:18:59.724Z,53.60
2022-11-05T22:21:26.751Z,53.70
2022-11-05T22:23:53.623Z,53.70
2022-11-05T22:26:20.638Z,53.60
2022-11-05T22:28:47.391Z,53.60
2022-11-05T22:31:15.462Z,53.60
2022-11-05T22:33:42.742Z,53.70
2022-11-05T22:36:10.140Z,53.60
2022-11-05T22:38:37.603Z,53.80
2022-11-05T22:41:17.320Z,53.80
2022-11-05T22:43:45.479Z,54.00
2022-11-05T22:46:18.083Z,53.80
2022-11-05T22:48:46.012Z,53.90
2022-11-05T22:51:18.800Z,53.90
2022-11-05T22:53:46.395Z,54.10
2022-11-05T22:56:16.009Z,54.00
2022-11-05T22:58:43.695Z,54.10
2022-11-05T23:01:12.010Z,54.20
2022-11-05T23:03:40.609Z,54.20
2022-11-05T23:06:35.434Z,54.10
2022-11-05T23:09:23.676Z,54.10
2022-11-05T23:11:52.999Z,54.00
2022-11-05T23:14:20.242Z,54.10
2022-11-05T23:17:05.299Z,54.20
2022-11-05T23:19:50.665Z,54.30
2022-11-05T23:22:39.048Z,54.30
2022-11-05T23:25:08.005Z,54.40
2022-11-05T23:27:37.685Z,54.50
2022-11-05T23:30:09.380Z,54.50
2022-11-05T23:32:36.647Z,54.70
2022-11-05T23:35:04.621Z,54.60
2022-11-05T23:37:50.754Z,54.70
2022-11-05T23:40:20.834Z,54.70
2022-11-05T23:43:06.340Z,54.70
2022-11-05T23:45:52.314Z,54.70
2022-11-05T23:48:26.105Z,54.80
2022-11-05T23:50:55.719Z,54.80
2022-11-05T23:53:23.069Z,54.80
2022-11-05T23:55:50.131Z,54.80
2022-11-05T23:58:17.877Z,54.80
